Time;durP1;ratioP1;P1;durP2;ratioP2;P2;SDS_P1;SDS_P2;PMS_P1;PMS_P2;Temp;Humidity;BMP_temperature;BMP_pressure;BME280_temperature;BME280_humidity;BME280_pressure;Samples;Min_cycle;Max_cycle;Signal;HPM_P1;HPM_P2
2022/09/03 00:02:18;;;;;;;1.25;1.10;;;23.70;41.20;;;;;;5037893;28;20056;-86
2022/09/03 00:05:00;;;;;;;2.67;1.38;;;23.70;41.20;;;;;;5037010;28;20503;-86
2022/09/03 00:08:01;;;;;;;1.30;1.15;;;23.60;41.30;;;;;;5037033;28;20112;-86
2022/09/03 00:10:57;;;;;;;1.27;0.80;;;23.60;41.40;;;;;;5037262;28;20105;-86
2022/09/03 00:13:33;;;;;;;1.30;1.00;;;23.60;41.40;;;;;;5036026;28;20034;-86
2022/09/03 00:16:09;;;;;;;1.27;1.00;;;23.60;41.40;;;;;;5036427;28;20477;-86
2022/09/03 00:18:43;;;;;;;1.10;1.00;;;23.50;41.40;;;;;;5036386;28;20458;-86
2022/09/03 00:21:14;;;;;;;1.10;1.00;;;23.50;41.50;;;;;;5035750;28;20470;-86
2022/09/03 00:23:43;;;;;;;1.60;1.20;;;23.50;41.50;;;;;;5036527;28;20536;-85
2022/09/03 00:26:11;;;;;;;1.67;1.00;;;23.50;41.50;;;;;;5037063;28;20053;-86
2022/09/03 00:28:43;;;;;;;1.17;1.00;;;23.50;41.60;;;;;;5035785;28;20033;-85
2022/09/03 00:31:20;;;;;;;1.35;1.00;;;23.40;41.60;;;;;;5036854;28;20037;-86
2022/09/03 00:33:50;;;;;;;1.30;0.82;;;23.50;41.60;;;;;;5036428;28;20465;-86
2022/09/03 00:36:26;;;;;;;1.10;1.00;;;23.40;41.60;;;;;;5036592;28;20100;-85
2022/09/03 00:38:52;;;;;;;0.70;0.70;;;23.40;41.70;;;;;;5045980;28;20045;-86
2022/09/03 00:41:40;;;;;;;1.30;1.20;;;23.30;41.60;;;;;;5046158;28;20149;-86
2022/09/03 00:44:13;;;;;;;1.45;0.90;;;23.30;41.70;;;;;;5043412;28;20489;-87
2022/09/03 00:46:51;;;;;;;1.10;1.00;;;23.30;41.70;;;;;;5036720;28;20034;-85
2022/09/03 00:49:36;;;;;;;1.88;1.00;;;23.30;41.70;;;;;;5036111;28;20033;-85
2022/09/03 00:52:04;;;;;;;1.50;1.02;;;23.30;41.80;;;;;;5036413;28;20037;-86
2022/09/03 00:54:40;;;;;;;1.55;1.08;;;23.20;41.80;;;;;;5035544;28;20044;-86
2022/09/03 00:57:35;;;;;;;1.90;1.08;;;23.20;41.80;;;;;;5035131;28;20034;-87
2022/09/03 01:00:04;;;;;;;0.80;0.73;;;23.20;41.80;;;;;;5035665;28;20048;-86
2022/09/03 01:02:55;;;;;;;1.33;1.00;;;23.20;41.80;;;;;;5035821;28;20021;-86
2022/09/03 01:05:45;;;;;;;1.00;0.90;;;23.10;41.80;;;;;;5038861;28;20040;-86
2022/09/03 01:08:38;;;;;;;1.85;1.10;;;23.10;41.90;;;;;;5034942;28;20553;-86
2022/09/03 01:11:26;;;;;;;1.10;0.80;;;23.10;42.00;;;;;;5035623;28;20036;-86
2022/09/03 01:14:16;;;;;;;1.80;1.05;;;23.00;41.90;;;;;;5036129;28;20469;-86
2022/09/03 01:17:14;;;;;;;1.00;0.90;;;23.00;41.90;;;;;;5035942;28;20456;-86
2022/09/03 01:20:12;;;;;;;0.80;0.80;;;23.00;42.10;;;;;;5035884;28;20043;-87
2022/09/03 01:23:16;;;;;;;1.40;1.10;;;22.90;42.00;;;;;;5047354;28;20042;-85
2022/09/03 01:26:03;;;;;;;1.10;1.00;;;22.90;42.10;;;;;;5034504;28;20045;-86
2022/09/03 01:28:39;;;;;;;0.93;0.93;;;22.90;42.10;;;;;;5034970;28;20040;-85
2022/09/03 01:31:46;;;;;;;1.45;1.00;;;22.80;42.10;;;;;;5034851;28;20060;-86
2022/09/03 01:34:42;;;;;;;1.33;1.00;;;22.80;42.10;;;;;;5034938;28;20065;-86
2022/09/03 01:37:14;;;;;;;0.77;0.77;;;22.80;42.20;;;;;;5036427;28;20545;-86
2022/09/03 01:40:18;;;;;;;1.08;0.98;;;22.80;42.20;;;;;;5035373;28;20076;-86
2022/09/03 01:42:53;;;;;;;1.20;1.10;;;22.70;42.20;;;;;;5040290;28;20089;-85
2022/09/03 01:45:22;;;;;;;1.45;1.10;;;22.70;42.20;;;;;;5039291;28;20034;-86
2022/09/03 01:48:29;;;;;;;2.08;1.20;;;22.60;42.20;;;;;;5039776;28;20053;-86
2022/09/03 01:51:31;;;;;;;0.98;0.88;;;22.60;42.30;;;;;;5036930;28;20033;-86
2022/09/03 01:54:34;;;;;;;1.20;1.10;;;22.60;42.30;;;;;;5018354;28;20536;-86
2022/09/03 01:57:21;;;;;;;1.80;1.05;;;22.60;42.30;;;;;;5006222;28;20526;-86
2022/09/03 01:59:58;;;;;;;1.05;0.85;;;22.50;42.30;;;;;;5034280;28;20032;-85
2022/09/03 02:02:26;;;;;;;1.15;1.00;;;22.50;42.30;;;;;;5034692;28;20041;-86
2022/09/03 02:05:14;;;;;;;1.45;1.02;;;22.50;42.30;;;;;;5033811;28;20025;-86
2022/09/03 02:07:45;;;;;;;0.85;0.82;;;22.50;42.40;;;;;;5035256;28;20030;-86
2022/09/03 02:10:46;;;;;;;1.35;1.00;;;22.40;42.40;;;;;;5034534;28;20030;-86
2022/09/03 02:13:18;;;;;;;1.15;1.02;;;22.40;42.40;;;;;;5019122;28;20042;-86
2022/09/03 02:15:46;;;;;;;1.50;1.08;;;22.40;42.40;;;;;;5038510;28;20052;-86
2022/09/03 02:18:44;;;;;;;1.10;1.00;;;22.40;42.50;;;;;;5039367;28;20078;-86
2022/09/03 02:21:16;;;;;;;1.17;0.90;;;22.30;42.50;;;;;;5050275;28;20042;-87
2022/09/03 02:23:42;;;;;;;1.17;1.05;;;22.30;42.50;;;;;;5034078;28;20036;-86
2022/09/03 02:26:11;;;;;;;0.90;0.90;;;22.30;42.50;;;;;;5017923;28;20029;-86
2022/09/03 02:28:37;;;;;;;1.92;0.98;;;22.30;42.50;;;;;;5033930;28;20029;-86
2022/09/03 02:31:04;;;;;;;1.50;1.20;;;22.30;42.60;;;;;;5033843;28;20029;-86
2022/09/03 02:33:34;;;;;;;1.55;1.10;;;22.30;42.60;;;;;;5034687;28;20037;-86
2022/09/03 02:36:01;;;;;;;0.85;0.80;;;22.20;42.50;;;;;;5033803;28;20080;-86
2022/09/03 02:38:27;;;;;;;1.38;0.90;;;22.20;42.50;;;;;;5017948;28;20120;-85
2022/09/03 02:40:53;;;;;;;1.85;0.90;;;22.20;42.60;;;;;;5039569;28;20040;-86
2022/09/03 02:44:00;;;;;;;1.40;1.10;;;22.10;42.50;;;;;;5025774;28;20106;-86
2022/09/03 02:46:51;;;;;;;1.20;1.10;;;22.10;42.70;;;;;;5030171;28;20117;-86
2022/09/03 02:49:16;;;;;;;0.80;0.80;;;22.10;42.70;;;;;;5035114;28;20036;-87
2022/09/03 02:51:43;;;;;;;0.93;0.90;;;22.10;42.60;;;;;;5017141;28;20033;-86
2022/09/03 02:54:11;;;;;;;1.10;1.00;;;22.10;42.70;;;;;;5034161;28;20033;-86
2022/09/03 02:56:37;;;;;;;1.25;0.90;;;22.10;42.70;;;;;;5033293;28;20050;-85
2022/09/03 02:59:05;;;;;;;1.15;1.00;;;22.00;42.70;;;;;;5033630;28;20040;-86
2022/09/03 03:01:31;;;;;;;0.98;0.90;;;22.00;42.80;;;;;;5033121;28;20033;-87
2022/09/03 03:03:57;;;;;;;1.08;0.98;;;22.00;42.80;;;;;;5033208;28;20041;-87
2022/09/03 03:06:23;;;;;;;1.10;1.00;;;21.90;42.80;;;;;;5033740;28;20103;-86
2022/09/03 03:08:49;;;;;;;1.25;1.05;;;22.00;42.80;;;;;;5033933;28;20037;-87
2022/09/03 03:11:18;;;;;;;0.82;0.82;;;21.90;42.80;;;;;;5033926;28;20026;-86
2022/09/03 03:13:47;;;;;;;1.00;1.00;;;21.90;42.80;;;;;;5034635;28;20035;-85
2022/09/03 03:16:14;;;;;;;1.15;1.00;;;21.90;42.80;;;;;;5017075;28;20022;-86
2022/09/03 03:18:40;;;;;;;0.80;0.80;;;21.80;42.80;;;;;;5033124;28;20057;-87
2022/09/03 03:21:09;;;;;;;1.67;1.00;;;21.80;42.80;;;;;;5033021;28;20018;-86
2022/09/03 03:23:37;;;;;;;1.77;1.00;;;21.80;42.90;;;;;;5016732;28;20103;-86
2022/09/03 03:26:05;;;;;;;1.15;1.05;;;21.80;42.90;;;;;;5034300;28;20029;-85
2022/09/03 03:28:33;;;;;;;0.95;0.90;;;21.70;42.90;;;;;;5016333;28;20060;-86
2022/09/03 03:31:13;;;;;;;0.93;0.90;;;21.70;42.90;;;;;;5033571;28;20124;-86
2022/09/03 03:33:40;;;;;;;0.95;0.80;;;21.70;43.00;;;;;;5016567;28;20034;-87
2022/09/03 03:36:10;;;;;;;1.30;1.20;;;21.70;43.00;;;;;;5032984;28;20029;-87
2022/09/03 03:38:37;;;;;;;1.10;1.00;;;21.70;43.10;;;;;;5033449;28;20108;-87
2022/09/03 03:41:37;;;;;;;1.33;1.00;;;21.70;43.00;;;;;;5034185;28;20029;-87
2022/09/03 03:44:04;;;;;;;2.15;0.90;;;21.60;43.40;;;;;;5033092;28;20050;-86
2022/09/03 03:46:36;;;;;;;1.60;1.33;;;21.60;43.10;;;;;;5033935;28;20095;-86
2022/09/03 03:49:03;;;;;;;1.30;0.90;;;21.50;43.10;;;;;;5034943;28;20030;-87
2022/09/03 03:51:29;;;;;;;1.02;1.00;;;21.50;43.10;;;;;;5033215;28;20033;-87
2022/09/03 03:53:56;;;;;;;1.42;1.00;;;21.50;43.10;;;;;;5034701;28;20351;-86
2022/09/03 03:56:23;;;;;;;0.93;0.80;;;21.50;43.20;;;;;;5035250;28;20491;-86
2022/09/03 03:58:50;;;;;;;1.52;1.00;;;21.50;43.20;;;;;;5033644;28;20389;-86
2022/09/03 04:01:21;;;;;;;1.08;0.90;;;21.50;43.30;;;;;;5017861;28;20028;-86
2022/09/03 04:03:47;;;;;;;1.20;1.10;;;21.40;43.30;;;;;;5033953;28;20036;-86
2022/09/03 04:06:17;;;;;;;0.88;0.88;;;21.40;43.30;;;;;;5034011;28;20104;-86
2022/09/03 04:08:45;;;;;;;0.80;0.80;;;21.40;44.00;;;;;;5036614;28;20025;-86
2022/09/03 04:11:13;;;;;;;0.90;0.90;;;21.40;43.30;;;;;;5055881;28;20029;-86
2022/09/03 04:13:41;;;;;;;1.55;1.10;;;21.40;43.40;;;;;;5055189;28;20072;-87
2022/09/03 04:16:10;;;;;;;0.93;0.93;;;21.30;43.30;;;;;;5044309;28;20037;-86
2022/09/03 04:18:36;;;;;;;2.00;0.95;;;21.30;43.40;;;;;;5041652;28;20052;-85
2022/09/03 04:21:05;;;;;;;0.90;0.82;;;21.30;43.40;;;;;;5041170;28;20018;-86
2022/09/03 04:23:37;;;;;;;1.40;0.90;;;21.30;43.40;;;;;;5037637;28;20038;-85
2022/09/03 04:26:18;;;;;;;0.80;0.80;;;21.20;43.40;;;;;;5036793;28;20033;-87
2022/09/03 04:28:44;;;;;;;0.93;0.93;;;21.20;43.80;;;;;;5035945;28;20030;-87
2022/09/03 04:31:13;;;;;;;0.90;0.90;;;21.20;43.40;;;;;;5036187;28;20025;-86
2022/09/03 04:33:39;;;;;;;1.20;0.90;;;21.20;43.50;;;;;;5019698;28;20040;-86
2022/09/03 04:36:15;;;;;;;1.63;0.88;;;21.20;43.60;;;;;;5019556;28;20132;-86
2022/09/03 04:38:42;;;;;;;1.00;0.90;;;21.10;43.50;;;;;;5036032;28;20026;-86
2022/09/03 04:41:10;;;;;;;0.82;0.82;;;21.10;43.50;;;;;;5020288;28;20037;-86
2022/09/03 04:43:37;;;;;;;1.30;0.80;;;21.10;43.60;;;;;;5020178;28;20148;-86
2022/09/03 04:46:05;;;;;;;1.02;0.80;;;21.10;43.60;;;;;;5021599;28;20037;-86
2022/09/03 04:48:33;;;;;;;1.27;1.00;;;21.10;43.70;;;;;;5038569;28;20036;-86
2022/09/03 04:51:13;;;;;;;1.10;1.00;;;21.00;43.60;;;;;;5020864;28;20121;-84
2022/09/03 04:53:44;;;;;;;1.05;0.95;;;21.00;43.70;;;;;;5036802;28;20446;-86
2022/09/03 04:56:19;;;;;;;0.93;0.85;;;21.00;43.70;;;;;;5037027;28;20037;-87
2022/09/03 04:58:46;;;;;;;2.13;0.90;;;21.00;43.70;;;;;;5035929;28;20029;-86
2022/09/03 05:01:19;;;;;;;1.10;0.90;;;21.00;43.70;;;;;;5019097;28;20028;-87
2022/09/03 05:03:45;;;;;;;1.60;0.93;;;21.00;43.80;;;;;;5035877;28;20041;-85
2022/09/03 05:06:11;;;;;;;0.75;0.75;;;20.90;43.70;;;;;;5037323;28;20032;-87
2022/09/03 05:08:39;;;;;;;1.50;1.00;;;20.90;43.80;;;;;;5036640;28;20112;-86
2022/09/03 05:11:06;;;;;;;1.70;1.00;;;20.90;43.80;;;;;;5037174;28;20024;-86
2022/09/03 05:13:33;;;;;;;1.10;1.00;;;20.80;43.80;;;;;;5019901;28;20042;-86
2022/09/03 05:16:05;;;;;;;1.15;0.95;;;20.90;43.90;;;;;;5020002;28;20038;-87
2022/09/03 05:18:31;;;;;;;1.08;1.00;;;20.80;43.90;;;;;;5035783;28;20025;-87
2022/09/03 05:21:06;;;;;;;0.90;0.90;;;20.80;43.90;;;;;;5036181;28;20032;-86
2022/09/03 05:23:36;;;;;;;1.00;0.90;;;20.80;44.00;;;;;;5036498;28;20037;-87
2022/09/03 05:26:05;;;;;;;0.80;0.80;;;20.80;44.00;;;;;;5036920;28;20029;-86
2022/09/03 05:28:31;;;;;;;1.08;1.00;;;20.80;44.00;;;;;;5019251;28;20120;-86
2022/09/03 05:31:00;;;;;;;0.90;0.90;;;20.80;44.00;;;;;;5035090;28;20029;-87
2022/09/03 05:33:26;;;;;;;1.23;0.95;;;20.70;44.00;;;;;;5034979;28;20074;-87
2022/09/03 05:35:59;;;;;;;1.00;1.00;;;20.70;44.00;;;;;;5034821;28;20036;-85
2022/09/03 05:38:25;;;;;;;0.98;0.90;;;20.70;44.10;;;;;;5034807;28;20075;-86
2022/09/03 05:40:51;;;;;;;0.75;0.75;;;20.70;44.10;;;;;;5018005;28;20045;-86
2022/09/03 05:43:17;;;;;;;0.90;0.88;;;20.70;44.20;;;;;;5034312;28;20052;-86
2022/09/03 05:45:42;;;;;;;1.08;0.93;;;20.70;44.20;;;;;;5017385;28;20092;-86
2022/09/03 05:48:08;;;;;;;0.90;0.90;;;20.60;44.20;;;;;;5034163;28;20034;-86
2022/09/03 05:50:34;;;;;;;1.95;0.90;;;20.60;44.20;;;;;;5017623;28;20026;-86
2022/09/03 05:53:00;;;;;;;1.17;0.90;;;20.60;44.30;;;;;;5034700;28;20479;-86
2022/09/03 05:55:27;;;;;;;0.90;0.90;;;20.60;44.30;;;;;;5034089;28;20036;-86
2022/09/03 05:57:53;;;;;;;0.90;0.90;;;20.60;44.30;;;;;;5034428;28;20034;-87
2022/09/03 06:00:19;;;;;;;1.15;1.05;;;20.60;44.40;;;;;;5034071;28;20032;-86
2022/09/03 06:02:52;;;;;;;1.00;0.90;;;20.50;44.30;;;;;;5018462;28;20033;-86
2022/09/03 06:05:18;;;;;;;1.13;0.90;;;20.50;44.40;;;;;;5001559;28;20041;-86
2022/09/03 06:07:48;;;;;;;1.10;0.90;;;20.50;44.40;;;;;;5035347;28;20021;-86
2022/09/03 06:10:16;;;;;;;1.83;0.90;;;20.50;44.40;;;;;;5018181;28;20468;-87
2022/09/03 06:12:48;;;;;;;0.85;0.85;;;20.50;44.40;;;;;;5018058;28;20022;-86
2022/09/03 06:15:15;;;;;;;0.90;0.90;;;20.50;44.50;;;;;;5034784;28;20034;-85
2022/09/03 06:17:41;;;;;;;1.42;1.00;;;20.50;44.80;;;;;;5033365;28;20033;-85
2022/09/03 06:20:08;;;;;;;0.98;0.95;;;20.40;44.50;;;;;;5016714;28;20053;-85
2022/09/03 06:22:34;;;;;;;1.30;1.00;;;20.50;44.60;;;;;;5017929;28;20026;-86
2022/09/03 06:25:00;;;;;;;1.02;0.80;;;20.50;44.60;;;;;;5017322;28;20053;-85
2022/09/03 06:27:28;;;;;;;0.82;0.82;;;20.50;44.60;;;;;;5016736;28;20022;-85
2022/09/03 06:29:53;;;;;;;1.20;1.00;;;20.40;44.60;;;;;;5034429;28;20026;-86
2022/09/03 06:32:19;;;;;;;0.80;0.80;;;20.40;44.60;;;;;;5016222;28;20082;-85
2022/09/03 06:34:45;;;;;;;1.45;0.85;;;20.40;44.60;;;;;;5033240;28;20038;-86
2022/09/03 06:37:11;;;;;;;0.93;0.90;;;20.40;44.70;;;;;;5017373;28;20025;-85
2022/09/03 06:39:36;;;;;;;0.95;0.85;;;20.40;44.70;;;;;;5033191;28;20047;-85
2022/09/03 06:42:02;;;;;;;0.70;0.70;;;20.40;44.70;;;;;;5017421;28;20025;-84
2022/09/03 06:44:34;;;;;;;1.10;1.00;;;20.40;44.70;;;;;;5033353;28;20045;-85
2022/09/03 06:47:00;;;;;;;0.80;0.80;;;20.40;44.80;;;;;;5017118;28;20039;-85
2022/09/03 06:49:26;;;;;;;0.77;0.77;;;20.40;44.80;;;;;;5017612;28;20033;-86
2022/09/03 06:51:52;;;;;;;1.15;0.90;;;20.40;44.30;;;;;;5017568;28;20093;-85
2022/09/03 06:54:17;;;;;;;1.27;0.93;;;20.40;44.90;;;;;;5016952;28;20026;-85
2022/09/03 06:56:43;;;;;;;1.10;1.00;;;20.40;44.90;;;;;;5017440;28;20041;-88
2022/09/03 06:59:12;;;;;;;1.00;0.90;;;20.40;44.90;;;;;;5019286;28;20029;-86
2022/09/03 07:01:42;;;;;;;1.33;0.90;;;20.40;45.00;;;;;;5033213;28;20029;-86
2022/09/03 07:04:09;;;;;;;1.08;1.00;;;20.40;45.00;;;;;;5033660;28;20382;-86
2022/09/03 07:06:39;;;;;;;1.90;0.90;;;20.40;45.70;;;;;;5034122;28;20052;-87
2022/09/03 07:09:06;;;;;;;0.90;0.88;;;20.40;45.10;;;;;;5033936;28;20501;-88
2022/09/03 07:11:34;;;;;;;1.70;0.88;;;20.40;45.00;;;;;;5034387;28;20208;-87
2022/09/03 07:14:02;;;;;;;1.10;0.95;;;20.40;45.10;;;;;;5016825;28;20025;-86
2022/09/03 07:16:36;;;;;;;0.88;0.88;;;20.40;45.10;;;;;;5034367;28;20032;-87
2022/09/03 07:19:04;;;;;;;1.38;0.88;;;20.40;45.10;;;;;;5033742;28;20021;-87
2022/09/03 07:21:32;;;;;;;1.38;1.05;;;20.40;45.10;;;;;;5033054;28;20025;-86
2022/09/03 07:23:59;;;;;;;1.25;1.10;;;20.40;45.10;;;;;;5016618;28;20037;-87
2022/09/03 07:26:36;;;;;;;1.60;0.90;;;20.40;45.10;;;;;;5034267;28;20533;-86
2022/09/03 07:29:03;;;;;;;0.90;0.90;;;20.40;45.20;;;;;;5034328;28;20032;-87
2022/09/03 07:31:32;;;;;;;0.85;0.85;;;20.40;45.10;;;;;;5034085;28;20053;-87
2022/09/03 07:34:09;;;;;;;1.20;1.10;;;20.40;45.20;;;;;;5033999;28;20042;-87
2022/09/03 07:36:46;;;;;;;1.13;1.02;;;20.40;45.20;;;;;;5040835;28;20447;-86
2022/09/03 07:39:14;;;;;;;1.88;1.00;;;20.40;45.30;;;;;;5037302;28;20046;-86
2022/09/03 07:41:47;;;;;;;0.95;0.88;;;20.40;45.20;;;;;;5036516;28;20098;-85
2022/09/03 07:44:18;;;;;;;1.88;1.10;;;20.40;45.30;;;;;;5039340;28;20049;-86
2022/09/03 07:46:44;;;;;;;0.80;0.80;;;20.50;45.30;;;;;;5039829;28;20033;-87
2022/09/03 07:49:10;;;;;;;1.23;1.00;;;20.40;45.30;;;;;;5038532;28;20025;-85
2022/09/03 07:51:37;;;;;;;0.82;0.82;;;20.50;45.40;;;;;;5037966;28;20033;-86
2022/09/03 07:54:06;;;;;;;0.85;0.80;;;20.50;45.40;;;;;;5036659;28;20061;-87
2022/09/03 07:56:36;;;;;;;0.85;0.85;;;20.50;45.40;;;;;;5038622;28;20041;-87
2022/09/03 07:59:03;;;;;;;1.10;0.95;;;20.50;45.40;;;;;;5038399;28;20036;-88
2022/09/03 08:01:32;;;;;;;1.20;0.88;;;20.50;45.40;;;;;;5036356;28;20057;-86
2022/09/03 08:03:59;;;;;;;1.20;1.10;;;20.50;45.40;;;;;;5037640;28;20069;-88
2022/09/03 08:06:27;;;;;;;1.23;1.00;;;20.50;45.50;;;;;;5038043;28;20048;-86
2022/09/03 08:09:01;;;;;;;1.02;0.98;;;20.50;45.50;;;;;;5020120;28;20068;-86
2022/09/03 08:11:28;;;;;;;0.80;0.80;;;20.60;45.50;;;;;;5038373;28;20033;-87
2022/09/03 08:14:05;;;;;;;1.48;1.00;;;20.60;45.50;;;;;;5021032;28;20120;-89
2022/09/03 08:16:36;;;;;;;1.20;1.02;;;20.50;45.50;;;;;;5037338;28;20465;-86
2022/09/03 08:19:02;;;;;;;0.80;0.80;;;20.60;46.20;;;;;;5019918;28;20029;-86
2022/09/03 08:21:28;;;;;;;0.93;0.90;;;20.60;45.50;;;;;;5037289;28;20036;-88
2022/09/03 08:24:01;;;;;;;0.90;0.90;;;20.60;45.50;;;;;;5020892;28;20045;-88
2022/09/03 08:26:29;;;;;;;0.70;0.70;;;20.60;45.60;;;;;;5036862;28;20033;-89
2022/09/03 08:28:54;;;;;;;0.85;0.85;;;20.60;45.60;;;;;;5037673;28;20025;-87
2022/09/03 08:31:22;;;;;;;2.03;0.90;;;20.60;45.50;;;;;;5038031;28;20037;-86
2022/09/03 08:33:53;;;;;;;0.98;0.98;;;20.70;45.60;;;;;;5034949;28;20029;-86
2022/09/03 08:36:30;;;;;;;0.82;0.82;;;20.70;45.60;;;;;;5054149;28;20084;-86
2022/09/03 08:38:58;;;;;;;1.00;1.00;;;20.70;45.60;;;;;;5047967;28;20026;-83
2022/09/03 08:41:52;;;;;;;1.85;1.10;;;20.80;45.50;;;;;;5030572;28;20025;-89
2022/09/03 08:44:38;;;;;;;1.15;0.90;;;20.80;45.60;;;;;;5047813;28;20088;-87
2022/09/03 08:47:34;;;;;;;0.73;0.73;;;20.90;45.60;;;;;;5037701;28;20068;-86
2022/09/03 08:50:07;;;;;;;0.75;0.75;;;20.90;45.50;;;;;;5037281;28;20034;-86
2022/09/03 08:52:47;;;;;;;0.80;0.80;;;21.00;45.50;;;;;;5035807;28;20033;-86
2022/09/03 08:55:27;;;;;;;0.90;0.90;;;21.00;45.50;;;;;;5034977;28;20037;-85
2022/09/03 08:58:14;;;;;;;1.50;1.00;;;21.10;45.50;;;;;;5035408;28;20363;-86
2022/09/03 09:00:51;;;;;;;0.70;0.70;;;21.10;45.40;;;;;;5036077;28;20025;-84
2022/09/03 09:03:29;;;;;;;0.70;0.70;;;21.20;45.40;;;;;;5035159;28;20030;-85
2022/09/03 09:06:25;;;;;;;1.55;1.00;;;21.30;45.30;;;;;;5035590;28;20041;-86
2022/09/03 09:09:24;;;;;;;0.98;0.88;;;21.40;45.30;;;;;;5034433;28;20151;-86
2022/09/03 09:12:18;;;;;;;1.02;0.85;;;21.40;45.20;;;;;;5035003;28;20033;-85
2022/09/03 09:15:04;;;;;;;1.33;0.80;;;21.50;45.20;;;;;;5034786;28;20121;-85
2022/09/03 09:18:02;;;;;;;0.73;0.73;;;21.60;45.10;;;;;;5035637;28;20120;-86
2022/09/03 09:20:51;;;;;;;0.70;0.70;;;21.70;45.20;;;;;;5035212;28;20064;-86
2022/09/03 09:23:29;;;;;;;0.88;0.77;;;21.80;45.10;;;;;;5036058;28;20075;-85
2022/09/03 09:25:58;;;;;;;1.30;0.80;;;21.90;45.10;;;;;;5035001;28;20038;-85
2022/09/03 09:28:33;;;;;;;0.80;0.80;;;21.90;45.00;;;;;;5035613;28;20096;-85
2022/09/03 09:31:01;;;;;;;0.80;0.80;;;22.00;45.00;;;;;;5034764;28;20034;-85
2022/09/03 09:33:30;;;;;;;1.10;1.00;;;22.20;45.00;;;;;;5034222;28;20036;-85
2022/09/03 09:36:01;;;;;;;0.80;0.80;;;22.30;45.00;;;;;;5035482;28;20039;-85
2022/09/03 09:38:35;;;;;;;0.90;0.90;;;22.30;45.00;;;;;;5034422;28;20025;-85
2022/09/03 09:41:15;;;;;;;1.02;0.82;;;22.40;45.00;;;;;;5034445;28;20099;-85
2022/09/03 09:43:42;;;;;;;1.05;0.95;;;22.50;45.00;;;;;;5034844;28;20469;-85
2022/09/03 09:46:21;;;;;;;0.77;0.77;;;22.60;44.90;;;;;;5035103;28;20458;-86
2022/09/03 09:48:51;;;;;;;0.88;0.85;;;22.70;44.90;;;;;;5034515;28;20025;-85
2022/09/03 09:51:30;;;;;;;0.90;0.70;;;22.80;44.80;;;;;;5034249;28;20535;-85
2022/09/03 09:54:26;;;;;;;1.05;0.90;;;22.90;44.80;;;;;;5034412;28;20042;-87
2022/09/03 09:57:04;;;;;;;0.60;0.60;;;23.00;44.80;;;;;;5032101;28;20044;-86
2022/09/03 09:59:32;;;;;;;0.80;0.80;;;23.10;44.80;;;;;;5034882;28;20036;-85
2022/09/03 10:02:27;;;;;;;0.70;0.70;;;23.20;44.70;;;;;;5034759;28;20052;-85
2022/09/03 10:05:10;;;;;;;0.93;0.70;;;23.30;44.90;;;;;;5035687;28;20514;-85
2022/09/03 10:07:36;;;;;;;0.80;0.80;;;23.40;44.90;;;;;;5017359;28;20087;-85
2022/09/03 10:10:18;;;;;;;0.75;0.70;;;23.50;44.80;;;;;;5018116;28;20034;-85
2022/09/03 10:13:11;;;;;;;0.68;0.68;;;23.60;45.00;;;;;;5033784;28;20037;-85
2022/09/03 10:15:40;;;;;;;1.45;0.90;;;23.80;45.00;;;;;;5033797;28;20040;-86
2022/09/03 10:18:25;;;;;;;1.10;0.75;;;23.80;44.80;;;;;;5034537;28;20483;-86
2022/09/03 10:21:02;;;;;;;0.80;0.77;;;23.90;44.90;;;;;;5050063;28;20125;-86
2022/09/03 10:23:32;;;;;;;0.73;0.73;;;24.10;45.00;;;;;;5033576;28;20105;-86
2022/09/03 10:26:06;;;;;;;0.82;0.82;;;24.20;45.60;;;;;;5035155;28;20018;-85
2022/09/03 10:28:40;;;;;;;1.25;1.00;;;24.30;45.00;;;;;;5034195;28;20104;-86
2022/09/03 10:31:25;;;;;;;0.90;0.90;;;24.40;45.10;;;;;;5034568;28;20028;-86
2022/09/03 10:34:35;;;;;;;1.67;0.70;;;24.50;45.10;;;;;;5033010;28;20037;-85
2022/09/03 10:37:27;;;;;;;0.70;0.70;;;24.60;45.30;;;;;;5033590;28;20108;-87
2022/09/03 10:40:12;;;;;;;0.75;0.70;;;24.70;45.20;;;;;;5016156;28;20064;-84
2022/09/03 10:42:57;;;;;;;1.73;0.93;;;24.80;45.10;;;;;;5035343;28;20025;-86
2022/09/03 10:45:47;;;;;;;1.17;0.73;;;25.00;45.10;;;;;;5033402;28;20037;-84
2022/09/03 10:48:36;;;;;;;0.70;0.70;;;25.10;45.00;;;;;;5033119;28;20037;-84
2022/09/03 10:51:05;;;;;;;0.63;0.63;;;25.10;45.10;;;;;;5034433;28;20067;-84
2022/09/03 10:54:10;;;;;;;1.73;0.70;;;25.30;45.00;;;;;;5033910;28;20096;-84
2022/09/03 10:56:44;;;;;;;0.80;0.70;;;25.40;45.00;;;;;;5034073;28;20060;-86
2022/09/03 10:59:16;;;;;;;0.88;0.85;;;25.50;44.80;;;;;;5032325;28;20033;-85
2022/09/03 11:01:44;;;;;;;0.60;0.60;;;25.60;44.70;;;;;;5032313;28;20061;-84
2022/09/03 11:04:48;;;;;;;0.70;0.70;;;25.60;44.60;;;;;;5034035;28;20431;-85
2022/09/03 11:07:19;;;;;;;0.70;0.70;;;25.70;44.60;;;;;;5032012;28;20124;-86
2022/09/03 11:10:02;;;;;;;0.75;0.70;;;25.80;44.50;;;;;;5029021;28;20128;-85
2022/09/03 11:12:33;;;;;;;1.02;0.70;;;25.90;44.50;;;;;;5032837;28;20021;-84
2022/09/03 11:15:24;;;;;;;0.80;0.68;;;25.90;44.50;;;;;;5016773;28;20465;-86
2022/09/03 11:18:02;;;;;;;0.80;0.75;;;26.00;44.70;;;;;;5033444;28;20095;-84
2022/09/03 11:20:29;;;;;;;0.90;0.70;;;26.10;44.70;;;;;;5036848;28;20034;-85
2022/09/03 11:22:58;;;;;;;0.80;0.80;;;26.10;44.70;;;;;;5036358;28;20033;-85
2022/09/03 11:25:33;;;;;;;0.77;0.77;;;26.20;45.00;;;;;;5038127;28;20095;-86
2022/09/03 11:28:08;;;;;;;;;;;26.20;45.00;;;;;;5036879;28;20148;-84
2022/09/03 11:30:56;;;;;;;0.43;0.43;;;26.30;44.90;;;;;;5036451;28;19966;-85
2022/09/03 11:33:24;;;;;;;0.50;0.50;;;26.40;45.20;;;;;;5036305;28;20034;-84
2022/09/03 11:36:01;;;;;;;0.98;0.68;;;26.40;45.10;;;;;;5019797;28;20045;-86
2022/09/03 11:38:30;;;;;;;0.70;0.70;;;26.40;45.30;;;;;;5036495;28;20450;-84
2022/09/03 11:40:56;;;;;;;0.75;0.75;;;26.50;45.30;;;;;;5038644;28;20191;-86
2022/09/03 11:43:35;;;;;;;0.73;0.73;;;26.50;45.30;;;;;;5036853;28;20406;-85
2022/09/03 11:46:28;;;;;;;0.85;0.85;;;26.60;45.50;;;;;;5036281;28;20041;-85
2022/09/03 11:48:56;;;;;;;1.63;0.77;;;26.50;45.40;;;;;;5037147;28;20036;-85
2022/09/03 11:51:32;;;;;;;1.77;0.77;;;26.60;45.40;;;;;;5019449;28;20067;-86
2022/09/03 11:54:02;;;;;;;0.73;0.73;;;26.60;45.50;;;;;;5035779;28;20029;-85
2022/09/03 11:56:30;;;;;;;1.52;0.90;;;26.70;45.50;;;;;;5035961;28;20029;-85
2022/09/03 11:59:23;;;;;;;0.70;0.70;;;26.70;45.50;;;;;;5019568;28;20030;-85
2022/09/03 12:01:57;;;;;;;0.93;0.70;;;26.70;45.60;;;;;;5036724;28;20485;-84
2022/09/03 12:04:39;;;;;;;1.10;0.70;;;26.80;45.50;;;;;;5035957;28;20359;-85
2022/09/03 12:07:21;;;;;;;1.02;0.80;;;26.80;45.50;;;;;;5036284;28;20120;-86
2022/09/03 12:10:02;;;;;;;0.75;0.63;;;26.80;45.40;;;;;;5035661;28;20033;-85
2022/09/03 12:12:52;;;;;;;0.73;0.73;;;26.80;45.40;;;;;;5035916;28;20125;-85
2022/09/03 12:15:49;;;;;;;0.77;0.73;;;26.80;45.40;;;;;;5036659;28;20041;-87
2022/09/03 12:18:28;;;;;;;1.00;0.80;;;26.80;45.30;;;;;;5036771;28;20541;-86
2022/09/03 12:20:59;;;;;;;0.80;0.60;;;26.90;45.30;;;;;;5035208;28;20029;-86
2022/09/03 12:23:31;;;;;;;0.80;0.80;;;26.90;45.30;;;;;;5036176;28;20029;-86
2022/09/03 12:26:03;;;;;;;0.95;0.80;;;26.90;45.30;;;;;;5035727;28;20030;-85
2022/09/03 12:28:32;;;;;;;0.85;0.80;;;27.00;45.20;;;;;;5019797;28;20048;-86
2022/09/03 12:31:19;;;;;;;0.90;0.73;;;26.90;45.10;;;;;;5001858;28;20030;-86
2022/09/03 12:33:47;;;;;;;0.65;0.63;;;27.00;45.10;;;;;;5036806;28;20462;-85
2022/09/03 12:36:13;;;;;;;0.70;0.70;;;27.00;44.90;;;;;;5037469;28;20036;-84
2022/09/03 12:38:39;;;;;;;0.88;0.77;;;27.00;44.90;;;;;;5037533;28;20025;-85
2022/09/03 12:41:19;;;;;;;0.80;0.70;;;27.00;44.80;;;;;;5037460;28;20049;-85
2022/09/03 12:43:52;;;;;;;1.17;0.82;;;27.00;44.80;;;;;;5036124;28;20037;-85
2022/09/03 12:46:21;;;;;;;0.93;0.70;;;27.00;44.60;;;;;;5035987;28;20045;-85
2022/09/03 12:48:55;;;;;;;1.08;0.80;;;27.10;44.60;;;;;;5018883;28;20037;-85
2022/09/03 12:51:21;;;;;;;0.85;0.82;;;27.10;44.50;;;;;;5035264;28;20033;-86
2022/09/03 12:53:49;;;;;;;1.40;0.73;;;27.10;44.40;;;;;;5035803;28;20018;-84
2022/09/03 12:56:15;;;;;;;0.82;0.77;;;27.10;44.30;;;;;;5036335;28;20056;-86
2022/09/03 12:58:55;;;;;;;0.70;0.70;;;27.10;44.30;;;;;;5029181;28;20029;-86
2022/09/03 13:01:32;;;;;;;1.55;0.85;;;27.10;44.30;;;;;;5030251;28;20040;-87
2022/09/03 13:04:07;;;;;;;0.77;0.77;;;27.10;44.20;;;;;;5041203;28;20459;-84
2022/09/03 13:06:49;;;;;;;0.80;0.80;;;27.20;44.20;;;;;;5035340;28;20041;-84
2022/09/03 13:09:28;;;;;;;0.52;0.52;;;27.20;44.20;;;;;;5035041;28;20048;-84
2022/09/03 13:11:57;;;;;;;0.70;0.70;;;27.20;44.10;;;;;;5035410;28;20075;-86
2022/09/03 13:14:25;;;;;;;0.73;0.70;;;27.20;44.00;;;;;;5018099;28;20040;-85
2022/09/03 13:17:07;;;;;;;0.95;0.80;;;27.20;44.00;;;;;;5034435;28;20105;-85
2022/09/03 13:19:50;;;;;;;0.70;0.70;;;27.20;44.00;;;;;;5035500;28;20026;-84
2022/09/03 13:22:48;;;;;;;0.90;0.88;;;27.20;44.00;;;;;;5035216;28;20030;-84
2022/09/03 13:25:49;;;;;;;1.10;0.80;;;27.20;44.00;;;;;;5018222;28;20037;-85
2022/09/03 13:28:20;;;;;;;1.05;0.77;;;27.30;44.00;;;;;;5034300;28;20171;-84